Addison, Illinois
Current Conditions -  °F | °C
As of 1:51 PM on Friday 19 Dec 2014 (Local Time) from KORD Reporting Station
Overcast Overcast  
Wind Chill: 25°   Ceiling: 2800
Heat Index: 31°   Visibility: 10mi
Dew Point: 21°   Wind: 6mph
Humidity: 67%   Direction: 60°ENE
Pressure: 30.25"   Gusts: NA
Location:  41.93°N, 87.99°W
Report Text: KORD 191951Z 06005KT 10SM FEW019 OVC028 M01/M06 A3025 RMK AO2 SLP252 T10061061
Loading
Personal Weather Stations






























Interactive Weather Map New forecast layout! Learn more

10-Day Weather Forecast

Advertisements
Track Severe Weather on mobile